Faust — SLKQ — position and weather

sailwx.info

Track history (hours):
 
Tides and Currents Weather Stations Pressure Air Temp Water Temp Dewpoint Dewpoint Depression Visibility Wind Speed Wind Dir Waves Ship Positions

Faust

Last reported at 2015-Aug-30 15:33 UTC. Time now 2015-Aug-30 15:57 UTC.
Position N 53°34' E 008°33'.

Length 227.8 m; beam 32.3 m; draft 9.5 m.

Type: Cargo ship. MMSI: 266260000.

Date/timePositionNaut miles runAvg speedWind from/ knotsBaromVisibWave heightAir tempDewpointWater temp
2015-Aug-30 15:33N 53°34' E 008°33'0 0.0
2015-Aug-30 14:32N 53°34' E 008°33'0 0.0
2015-Aug-30 13:32N 53°34' E 008°33'0 0.0
2015-Aug-30 12:33N 53°34' E 008°33'0 0.0
2015-Aug-30 11:33N 53°34' E 008°33'0 0.0
2015-Aug-30 10:33N 53°34' E 008°33'0 0.0
2015-Aug-30 09:33N 53°34' E 008°33'0 0.0
2015-Aug-30 08:32N 53°34' E 008°33'0 0.0
2015-Aug-30 07:33N 53°34' E 008°33'0 0.0
2015-Aug-30 06:32N 53°34' E 008°33'0 0.0
2015-Aug-30 05:33N 53°34' E 008°33'0 0.0
2015-Aug-30 04:33N 53°34' E 008°33'0 0.0
2015-Aug-30 03:32N 53°34' E 008°33'0 0.0
2015-Aug-30 02:32N 53°34' E 008°33'0 0.0
2015-Aug-30 01:32N 53°34' E 008°33'0 0.0
2015-Aug-30 00:32N 53°34' E 008°33'0 0.0
2015-Aug-29 23:32N 53°34' E 008°33'0 0.0
2015-Aug-29 22:32N 53°34' E 008°33'0 0.0
2015-Aug-29 21:32N 53°34' E 008°33'0 0.0
2015-Aug-29 20:32N 53°34' E 008°33'0 0.0
2015-Aug-29 19:33N 53°34' E 008°33'0 0.0
2015-Aug-29 18:32N 53°34' E 008°33'0 0.0
2015-Aug-29 17:32N 53°34' E 008°33'0 0.0
2015-Aug-29 16:32N 53°34' E 008°33'0 0.0
2015-Aug-29 15:32N 53°34' E 008°33'0 0.0
2015-Aug-29 14:32N 53°34' E 008°33'0 0.0
2015-Aug-29 13:32N 53°34' E 008°33'0 0.4
2015-Aug-29 12:32N 53°35' E 008°33'0 0.0
2015-Aug-29 11:32N 53°35' E 008°33'0 0.0
2015-Aug-29 10:32N 53°35' E 008°33'0 0.0
2015-Aug-29 09:32N 53°35' E 008°33'0 0.0
2015-Aug-29 08:32N 53°35' E 008°33'0 0.0
2015-Aug-29 07:33N 53°35' E 008°33'0 0.0
2015-Aug-29 06:32N 53°35' E 008°33'0 0.0
2015-Aug-29 05:33N 53°35' E 008°33'0 0.0
2015-Aug-29 04:33N 53°35' E 008°33'0 0.0
2015-Aug-29 03:32N 53°35' E 008°33'0 0.0
2015-Aug-29 02:33N 53°35' E 008°33'0 0.0
2015-Aug-29 01:33N 53°35' E 008°33'1 0.6
2015-Aug-29 00:33N 53°34' E 008°33'7 7.1
2015-Aug-28 23:33N 53°39' E 008°24'1312.8
2015-Aug-28 22:33N 53°48' E 008°09'1312.7
2015-Aug-28 21:33N 53°52' E 007°48'7 6.6
2015-Aug-28 20:33N 53°54' E 007°37'7 6.7
2015-Aug-28 19:33N 53°54' E 007°26'8 8.1
2015-Aug-28 18:33N 53°52' E 007°13'1514.6
2015-Aug-28 17:32N 53°49' E 006°48'1514.6
2015-Aug-28 16:33N 53°45' E 006°24'1514.7
2015-Aug-28 15:33N 53°41' E 006°01'1514.5
2015-Aug-28 14:33N 53°36' E 005°38'1515.4
2015-Aug-28 13:33N 53°32' E 005°13'1515.4
2015-Aug-28 12:33N 53°26' E 004°49'1514.8
2015-Aug-28 11:33N 53°14' E 004°34'1616.0
2015-Aug-28 10:33N 53°00' E 004°20'1615.6
2015-Aug-28 09:33N 52°46' E 004°09'1615.7
2015-Aug-28 08:34N 52°35' E 003°51'1615.3
2015-Aug-28 07:33N 52°24' E 003°34'2015.1
2015-Aug-28 06:12N 52°10' E 003°10'1315.2
2015-Aug-28 05:20N 52°00' E 002°55'1515.0
2015-Aug-28 04:20N 51°46' E 002°45'1316.2
2015-Aug-28 03:33N 51°34' E 002°42'1312.5
2015-Aug-28 02:34N 51°22' E 002°49'1413.9
2015-Aug-28 01:34N 51°22' E 003°12'3 2.5
2015-Aug-28 00:33N 51°19' E 003°13'1 1.1
2015-Aug-27 23:33N 51°18' E 003°14'0 0.0
2015-Aug-27 22:32N 51°18' E 003°14'0 0.0
2015-Aug-27 21:32N 51°18' E 003°14'0 0.0
2015-Aug-27 20:32N 51°18' E 003°14'0 0.0
2015-Aug-27 19:32N 51°18' E 003°14'0 0.0
2015-Aug-27 18:32N 51°18' E 003°14'0 0.0
2015-Aug-27 17:32N 51°18' E 003°14'0 0.0
2015-Aug-27 16:32N 51°18' E 003°14'1 0.7
2015-Aug-27 15:33N 51°19' E 003°14'0 0.0
2015-Aug-27 14:33N 51°19' E 003°14'0 0.0
2015-Aug-27 13:33N 51°19' E 003°14'0 0.0
2015-Aug-27 12:33N 51°19' E 003°14'0 0.0
2015-Aug-27 11:33N 51°19' E 003°14'0 0.0
2015-Aug-27 10:33N 51°19' E 003°14'0 0.0
2015-Aug-27 09:33N 51°19' E 003°14'0 0.0
2015-Aug-27 08:33N 51°19' E 003°14'0 0.0
2015-Aug-27 07:33N 51°19' E 003°14'0 0.0
2015-Aug-27 06:33N 51°19' E 003°14'0 0.0
2015-Aug-27 05:33N 51°19' E 003°14'0 0.0
2015-Aug-27 04:33N 51°19' E 003°14'0 0.0
2015-Aug-27 03:33N 51°19' E 003°14'0 0.0
2015-Aug-27 02:33N 51°19' E 003°14'0 0.0
2015-Aug-27 01:30N 51°19' E 003°14'0 0.0
2015-Aug-27 00:33N 51°19' E 003°14'0 0.0
2015-Aug-26 23:33N 51°19' E 003°14'1 0.8
2015-Aug-26 22:33N 51°20' E 003°13'0 0.2
2015-Aug-26 21:33N 51°20' E 003°13'4 4.1
2015-Aug-26 20:33N 51°23' E 003°09'8 7.9
2015-Aug-26 19:33N 51°25' E 003°22'6 5.8
2015-Aug-26 18:33N 51°25' E 003°31'6 5.6
2015-Aug-26 17:33N 51°27' E 003°39'9 8.9
2015-Aug-26 16:34N 51°21' E 003°50'9 8.5
2015-Aug-26 15:34N 51°26' E 004°01'9 9.3
2015-Aug-26 14:34N 51°21' E 004°15'6 5.6
2015-Aug-26 13:33N 51°16' E 004°17'1 1.4
2015-Aug-26 12:33N 51°16' E 004°15'0 0.4
2015-Aug-26 11:33N 51°16' E 004°14'0 0.0
2015-Aug-26 10:31N 51°16' E 004°14'0 0.0
2015-Aug-26 09:31N 51°16' E 004°14'0 0.0
2015-Aug-26 08:31N 51°16' E 004°14'0 0.0
2015-Aug-26 07:31N 51°16' E 004°14'0 0.0
2015-Aug-26 06:28N 51°16' E 004°14'0 0.0
2015-Aug-26 05:31N 51°16' E 004°14'0 0.0
2015-Aug-26 04:28N 51°16' E 004°14'0 0.0
2015-Aug-26 03:31N 51°16' E 004°14'0 0.0
2015-Aug-26 02:31N 51°16' E 004°14'0 0.0
2015-Aug-26 01:31N 51°16' E 004°14'0 0.0
2015-Aug-26 00:31N 51°16' E 004°14'0 0.0
2015-Aug-25 23:31N 51°16' E 004°14'0 0.0
2015-Aug-25 22:31N 51°16' E 004°14'0 0.0
2015-Aug-25 21:28N 51°16' E 004°14'0 0.0
2015-Aug-25 20:28N 51°16' E 004°14'0 0.0
2015-Aug-25 19:31N 51°16' E 004°14'0 0.0
2015-Aug-25 18:33N 51°16' E 004°14'2 1.5
2015-Aug-25 17:33N 51°16' E 004°17'0 0.3
2015-Aug-25 16:33N 51°16' E 004°17'2 2.2
2015-Aug-25 15:33N 51°18' E 004°17'8 7.5
2015-Aug-25 14:34N 51°22' E 004°07'8 7.5
2015-Aug-25 13:33N 51°22' E 003°55'1010.4
2015-Aug-25 12:34N 51°26' E 003°40'8 8.3
2015-Aug-25 11:33N 51°25' E 003°27'1313.3
2015-Aug-25 10:34N 51°24' E 003°05'1313.1
2015-Aug-25 09:33N 51°23' E 002°45'3 3.1
2015-Aug-25 08:33N 51°25' E 002°41'6 6.4
2015-Aug-25 07:33N 51°20' E 002°34'0 0.4
2015-Aug-25 06:33N 51°20' E 002°33'5 5.1
2015-Aug-25 05:33N 51°20' E 002°25'3 3.4
2015-Aug-25 04:33N 51°22' E 002°29'3 2.7
2015-Aug-25 03:33N 51°21' E 002°26'6 5.6
2015-Aug-25 02:33N 51°18' E 002°18'5 4.8
2015-Aug-25 01:33N 51°16' E 002°11'1515.5
2015-Aug-25 00:34N 51°09' E 001°50'1818.5
2015-Aug-24 23:33N 50°56' E 001°28'28115.5
2015-Aug-24 05:24N 50°25' W 005°53'1820.0
2015-Aug-24 04:30N 50°37' W 005°30'9618.7
2015-Aug-23 23:23N 51°21' W 003°16'1011.6
2015-Aug-23 22:33N 51°25' W 003°02'1212.1
2015-Aug-23 21:33N 51°30' W 002°44'1 0.7
2015-Aug-23 20:33N 51°30' W 002°43'0 0.0
2015-Aug-23 19:33N 51°30' W 002°43'0 0.0
2015-Aug-23 18:33N 51°30' W 002°43'0 0.0
2015-Aug-23 17:33N 51°30' W 002°43'0 0.0
2015-Aug-23 16:30N 51°30' W 002°43'0 0.0
2015-Aug-23 15:33N 51°30' W 002°43'0 0.0
2015-Aug-23 14:33N 51°30' W 002°43'0 0.0
2015-Aug-23 13:33N 51°30' W 002°43'0 0.0
2015-Aug-23 12:33N 51°30' W 002°43'0 0.0
2015-Aug-23 11:33N 51°30' W 002°43'0 0.0
2015-Aug-23 10:33N 51°30' W 002°43'0 0.4
2015-Aug-23 09:33N 51°30' W 002°43'2 2.0
2015-Aug-23 08:33N 51°30' W 002°47'1414.3
2015-Aug-23 07:34N 51°22' W 003°06'80 8.6
2015-Aug-22 22:11N 50°49' W 005°03'914.6
2015-Aug-22 21:33N 50°43' W 005°13'1414.4
2015-Aug-22 20:33N 50°34' W 005°31'53116.4
2015-Aug-21 12:12N 42°13' W 009°49'1816.3
2015-Aug-21 11:07N 41°56' W 009°48'4216.3
2015-Aug-21 08:32N 41°14' W 009°49'1716.0
2015-Aug-21 07:30N 40°57' W 009°50'1516.0
2015-Aug-21 06:33N 40°42' W 009°51'1616.1
2015-Aug-21 05:33N 40°26' W 009°51'1616.2
2015-Aug-21 04:33N 40°10' W 009°51'1615.8
2015-Aug-21 03:33N 39°54' W 009°51'1616.2
2015-Aug-21 02:33N 39°38' W 009°50'1615.9
2015-Aug-21 01:33N 39°22' W 009°52'1616.0
2015-Aug-21 00:33N 39°06' W 009°51'1616.1
2015-Aug-20 23:33N 38°50' W 009°51'1615.8
2015-Aug-20 22:33N 38°34' W 009°48'1616.2
2015-Aug-20 21:33N 38°18' W 009°44'1716.5
2015-Aug-20 20:33N 38°02' W 009°40'1616.4
2015-Aug-20 19:33N 37°46' W 009°36'1616.5
2015-Aug-20 18:33N 37°30' W 009°31'1716.6
2015-Aug-20 17:33N 37°14' W 009°26'1716.5
2015-Aug-20 16:32N 36°58' W 009°21'  
Track history (hours):
 
Tides and Currents Weather Stations Pressure Air Temp Water Temp Dewpoint Dewpoint Depression Visibility Wind Speed Wind Dir Waves Ship Positions

Faust

Last reported at 2015-Aug-30 15:33 UTC. Time now 2015-Aug-30 15:57 UTC.
Position N 53°34' E 008°33'.

Length 227.8 m; beam 32.3 m; draft 9.5 m.

Type: Cargo ship. MMSI: 266260000.

Date/timePositionNaut miles runAvg speedWind from/ knotsBaromVisibWave heightAir tempDewpointWater temp
2015-Aug-30 15:33N 53°34' E 008°33'0 0.0
2015-Aug-30 14:32N 53°34' E 008°33'0 0.0
2015-Aug-30 13:32N 53°34' E 008°33'0 0.0
2015-Aug-30 12:33N 53°34' E 008°33'0 0.0
2015-Aug-30 11:33N 53°34' E 008°33'0 0.0
2015-Aug-30 10:33N 53°34' E 008°33'0 0.0
2015-Aug-30 09:33N 53°34' E 008°33'0 0.0
2015-Aug-30 08:32N 53°34' E 008°33'0 0.0
2015-Aug-30 07:33N 53°34' E 008°33'0 0.0
2015-Aug-30 06:32N 53°34' E 008°33'0 0.0
2015-Aug-30 05:33N 53°34' E 008°33'0 0.0
2015-Aug-30 04:33N 53°34' E 008°33'0 0.0
2015-Aug-30 03:32N 53°34' E 008°33'0 0.0
2015-Aug-30 02:32N 53°34' E 008°33'0 0.0
2015-Aug-30 01:32N 53°34' E 008°33'0 0.0
2015-Aug-30 00:32N 53°34' E 008°33'0 0.0
2015-Aug-29 23:32N 53°34' E 008°33'0 0.0
2015-Aug-29 22:32N 53°34' E 008°33'0 0.0
2015-Aug-29 21:32N 53°34' E 008°33'0 0.0
2015-Aug-29 20:32N 53°34' E 008°33'0 0.0
2015-Aug-29 19:33N 53°34' E 008°33'0 0.0
2015-Aug-29 18:32N 53°34' E 008°33'0 0.0
2015-Aug-29 17:32N 53°34' E 008°33'0 0.0
2015-Aug-29 16:32N 53°34' E 008°33'0 0.0
2015-Aug-29 15:32N 53°34' E 008°33'0 0.0
2015-Aug-29 14:32N 53°34' E 008°33'0 0.0
2015-Aug-29 13:32N 53°34' E 008°33'0 0.4
2015-Aug-29 12:32N 53°35' E 008°33'0 0.0
2015-Aug-29 11:32N 53°35' E 008°33'0 0.0
2015-Aug-29 10:32N 53°35' E 008°33'0 0.0
2015-Aug-29 09:32N 53°35' E 008°33'0 0.0
2015-Aug-29 08:32N 53°35' E 008°33'0 0.0
2015-Aug-29 07:33N 53°35' E 008°33'0 0.0
2015-Aug-29 06:32N 53°35' E 008°33'0 0.0
2015-Aug-29 05:33N 53°35' E 008°33'0 0.0
2015-Aug-29 04:33N 53°35' E 008°33'0 0.0
2015-Aug-29 03:32N 53°35' E 008°33'0 0.0
2015-Aug-29 02:33N 53°35' E 008°33'0 0.0
2015-Aug-29 01:33N 53°35' E 008°33'1 0.6
2015-Aug-29 00:33N 53°34' E 008°33'7 7.1
2015-Aug-28 23:33N 53°39' E 008°24'1312.8
2015-Aug-28 22:33N 53°48' E 008°09'1312.7
2015-Aug-28 21:33N 53°52' E 007°48'7 6.6
2015-Aug-28 20:33N 53°54' E 007°37'7 6.7
2015-Aug-28 19:33N 53°54' E 007°26'8 8.1
2015-Aug-28 18:33N 53°52' E 007°13'1514.6
2015-Aug-28 17:32N 53°49' E 006°48'1514.6
2015-Aug-28 16:33N 53°45' E 006°24'1514.7
2015-Aug-28 15:33N 53°41' E 006°01'1514.5
2015-Aug-28 14:33N 53°36' E 005°38'1515.4
2015-Aug-28 13:33N 53°32' E 005°13'1515.4
2015-Aug-28 12:33N 53°26' E 004°49'1514.8
2015-Aug-28 11:33N 53°14' E 004°34'1616.0
2015-Aug-28 10:33N 53°00' E 004°20'1615.6
2015-Aug-28 09:33N 52°46' E 004°09'1615.7
2015-Aug-28 08:34N 52°35' E 003°51'1615.3
2015-Aug-28 07:33N 52°24' E 003°34'2015.1
2015-Aug-28 06:12N 52°10' E 003°10'1315.2
2015-Aug-28 05:20N 52°00' E 002°55'1515.0
2015-Aug-28 04:20N 51°46' E 002°45'1316.2
2015-Aug-28 03:33N 51°34' E 002°42'1312.5
2015-Aug-28 02:34N 51°22' E 002°49'1413.9
2015-Aug-28 01:34N 51°22' E 003°12'3 2.5
2015-Aug-28 00:33N 51°19' E 003°13'1 1.1
2015-Aug-27 23:33N 51°18' E 003°14'0 0.0
2015-Aug-27 22:32N 51°18' E 003°14'0 0.0
2015-Aug-27 21:32N 51°18' E 003°14'0 0.0
2015-Aug-27 20:32N 51°18' E 003°14'0 0.0
2015-Aug-27 19:32N 51°18' E 003°14'0 0.0
2015-Aug-27 18:32N 51°18' E 003°14'0 0.0
2015-Aug-27 17:32N 51°18' E 003°14'0 0.0
2015-Aug-27 16:32N 51°18' E 003°14'1 0.7
2015-Aug-27 15:33N 51°19' E 003°14'0 0.0
2015-Aug-27 14:33N 51°19' E 003°14'0 0.0
2015-Aug-27 13:33N 51°19' E 003°14'0 0.0
2015-Aug-27 12:33N 51°19' E 003°14'0 0.0
2015-Aug-27 11:33N 51°19' E 003°14'0 0.0
2015-Aug-27 10:33N 51°19' E 003°14'0 0.0
2015-Aug-27 09:33N 51°19' E 003°14'0 0.0
2015-Aug-27 08:33N 51°19' E 003°14'0 0.0
2015-Aug-27 07:33N 51°19' E 003°14'0 0.0
2015-Aug-27 06:33N 51°19' E 003°14'0 0.0
2015-Aug-27 05:33N 51°19' E 003°14'0 0.0
2015-Aug-27 04:33N 51°19' E 003°14'0 0.0
2015-Aug-27 03:33N 51°19' E 003°14'0 0.0
2015-Aug-27 02:33N 51°19' E 003°14'0 0.0
2015-Aug-27 01:30N 51°19' E 003°14'0 0.0
2015-Aug-27 00:33N 51°19' E 003°14'0 0.0
2015-Aug-26 23:33N 51°19' E 003°14'1 0.8
2015-Aug-26 22:33N 51°20' E 003°13'0 0.2
2015-Aug-26 21:33N 51°20' E 003°13'4 4.1
2015-Aug-26 20:33N 51°23' E 003°09'8 7.9
2015-Aug-26 19:33N 51°25' E 003°22'6 5.8
2015-Aug-26 18:33N 51°25' E 003°31'6 5.6
2015-Aug-26 17:33N 51°27' E 003°39'9 8.9
2015-Aug-26 16:34N 51°21' E 003°50'9 8.5
2015-Aug-26 15:34N 51°26' E 004°01'9 9.3
2015-Aug-26 14:34N 51°21' E 004°15'6 5.6
2015-Aug-26 13:33N 51°16' E 004°17'1 1.4
2015-Aug-26 12:33N 51°16' E 004°15'0 0.4
2015-Aug-26 11:33N 51°16' E 004°14'0 0.0
2015-Aug-26 10:31N 51°16' E 004°14'0 0.0
2015-Aug-26 09:31N 51°16' E 004°14'0 0.0
2015-Aug-26 08:31N 51°16' E 004°14'0 0.0
2015-Aug-26 07:31N 51°16' E 004°14'0 0.0
2015-Aug-26 06:28N 51°16' E 004°14'0 0.0
2015-Aug-26 05:31N 51°16' E 004°14'0 0.0
2015-Aug-26 04:28N 51°16' E 004°14'0 0.0
2015-Aug-26 03:31N 51°16' E 004°14'0 0.0
2015-Aug-26 02:31N 51°16' E 004°14'0 0.0
2015-Aug-26 01:31N 51°16' E 004°14'0 0.0
2015-Aug-26 00:31N 51°16' E 004°14'0 0.0
2015-Aug-25 23:31N 51°16' E 004°14'0 0.0
2015-Aug-25 22:31N 51°16' E 004°14'0 0.0
2015-Aug-25 21:28N 51°16' E 004°14'0 0.0
2015-Aug-25 20:28N 51°16' E 004°14'0 0.0
2015-Aug-25 19:31N 51°16' E 004°14'0 0.0
2015-Aug-25 18:33N 51°16' E 004°14'2 1.5
2015-Aug-25 17:33N 51°16' E 004°17'0 0.3
2015-Aug-25 16:33N 51°16' E 004°17'2 2.2
2015-Aug-25 15:33N 51°18' E 004°17'8 7.5
2015-Aug-25 14:34N 51°22' E 004°07'8 7.5
2015-Aug-25 13:33N 51°22' E 003°55'1010.4
2015-Aug-25 12:34N 51°26' E 003°40'8 8.3
2015-Aug-25 11:33N 51°25' E 003°27'1313.3
2015-Aug-25 10:34N 51°24' E 003°05'1313.1
2015-Aug-25 09:33N 51°23' E 002°45'3 3.1
2015-Aug-25 08:33N 51°25' E 002°41'6 6.4
2015-Aug-25 07:33N 51°20' E 002°34'0 0.4
2015-Aug-25 06:33N 51°20' E 002°33'5 5.1
2015-Aug-25 05:33N 51°20' E 002°25'3 3.4
2015-Aug-25 04:33N 51°22' E 002°29'3 2.7
2015-Aug-25 03:33N 51°21' E 002°26'6 5.6
2015-Aug-25 02:33N 51°18' E 002°18'5 4.8
2015-Aug-25 01:33N 51°16' E 002°11'1515.5
2015-Aug-25 00:34N 51°09' E 001°50'1818.5
2015-Aug-24 23:33N 50°56' E 001°28'28115.5
2015-Aug-24 05:24N 50°25' W 005°53'1820.0
2015-Aug-24 04:30N 50°37' W 005°30'9618.7
2015-Aug-23 23:23N 51°21' W 003°16'1011.6
2015-Aug-23 22:33N 51°25' W 003°02'1212.1
2015-Aug-23 21:33N 51°30' W 002°44'1 0.7
2015-Aug-23 20:33N 51°30' W 002°43'0 0.0
2015-Aug-23 19:33N 51°30' W 002°43'0 0.0
2015-Aug-23 18:33N 51°30' W 002°43'0 0.0
2015-Aug-23 17:33N 51°30' W 002°43'0 0.0
2015-Aug-23 16:30N 51°30' W 002°43'0 0.0
2015-Aug-23 15:33N 51°30' W 002°43'0 0.0
2015-Aug-23 14:33N 51°30' W 002°43'0 0.0
2015-Aug-23 13:33N 51°30' W 002°43'0 0.0
2015-Aug-23 12:33N 51°30' W 002°43'0 0.0
2015-Aug-23 11:33N 51°30' W 002°43'0 0.0
2015-Aug-23 10:33N 51°30' W 002°43'0 0.4
2015-Aug-23 09:33N 51°30' W 002°43'2 2.0
2015-Aug-23 08:33N 51°30' W 002°47'1414.3
2015-Aug-23 07:34N 51°22' W 003°06'80 8.6
2015-Aug-22 22:11N 50°49' W 005°03'914.6
2015-Aug-22 21:33N 50°43' W 005°13'1414.4
2015-Aug-22 20:33N 50°34' W 005°31'53116.4
2015-Aug-21 12:12N 42°13' W 009°49'1816.3
2015-Aug-21 11:07N 41°56' W 009°48'4216.3
2015-Aug-21 08:32N 41°14' W 009°49'1716.0
2015-Aug-21 07:30N 40°57' W 009°50'1516.0
2015-Aug-21 06:33N 40°42' W 009°51'1616.1
2015-Aug-21 05:33N 40°26' W 009°51'1616.2
2015-Aug-21 04:33N 40°10' W 009°51'1615.8
2015-Aug-21 03:33N 39°54' W 009°51'1616.2
2015-Aug-21 02:33N 39°38' W 009°50'1615.9
2015-Aug-21 01:33N 39°22' W 009°52'1616.0
2015-Aug-21 00:33N 39°06' W 009°51'1616.1
2015-Aug-20 23:33N 38°50' W 009°51'1615.8
2015-Aug-20 22:33N 38°34' W 009°48'1616.2
2015-Aug-20 21:33N 38°18' W 009°44'1716.5
2015-Aug-20 20:33N 38°02' W 009°40'1616.4
2015-Aug-20 19:33N 37°46' W 009°36'1616.5
2015-Aug-20 18:33N 37°30' W 009°31'1716.6
2015-Aug-20 17:33N 37°14' W 009°26'1716.5
2015-Aug-20 16:32N 36°58' W 009°21'  

Dump ship's entire track history